Time;durP1;ratioP1;P1;durP2;ratioP2;P2;SDS_P1;SDS_P2;PMS_P1;PMS_P2;Temp;Humidity;BMP_temperature;BMP_pressure;BME280_temperature;BME280_humidity;BME280_pressure;Samples;Min_cycle;Max_cycle;Signal;HPM_P1;HPM_P2
2021/12/13 00:01:27;;;;;;;36.40;13.57;;;10.00;99.90;;;;;;5080949;28;20088;-80
2021/12/13 00:04:08;;;;;;;50.85;15.75;;;10.00;99.90;;;;;;5079087;28;20062;-80
2021/12/13 00:06:39;;;;;;;59.15;14.65;;;10.00;99.90;;;;;;5097904;28;20067;-80
2021/12/13 00:09:13;;;;;;;49.95;15.00;;;10.00;99.90;;;;;;5096269;28;20040;-79
2021/12/13 00:11:43;;;;;;;44.28;14.82;;;9.90;99.90;;;;;;5091797;28;20170;-80
2021/12/13 00:14:17;;;;;;;36.80;13.45;;;9.90;99.90;;;;;;5094796;28;20465;-79
2021/12/13 00:16:49;;;;;;;46.38;14.35;;;9.90;99.90;;;;;;5095775;28;20059;-80
2021/12/13 00:19:21;;;;;;;44.13;14.45;;;10.00;99.90;;;;;;5093706;28;20101;-79
2021/12/13 00:21:54;;;;;;;59.10;17.08;;;10.00;99.90;;;;;;5091978;28;20051;-80
2021/12/13 00:24:24;;;;;;;69.22;17.85;;;10.00;99.90;;;;;;5085461;28;20126;-79
2021/12/13 00:26:59;;;;;;;52.67;16.73;;;9.90;99.90;;;;;;5080025;28;20439;-79
2021/12/13 00:29:30;;;;;;;51.80;17.15;;;10.00;99.90;;;;;;5079113;28;20043;-80
2021/12/13 00:32:10;;;;;;;42.70;15.82;;;10.00;99.90;;;;;;5095961;28;20433;-80
2021/12/13 00:34:41;;;;;;;63.55;17.20;;;9.90;99.90;;;;;;5077571;28;20089;-80
2021/12/13 00:37:20;;;;;;;63.65;19.27;;;9.90;99.90;;;;;;5078563;28;20177;-81
2021/12/13 00:39:58;;;;;;;89.80;19.27;;;9.90;99.90;;;;;;5078158;28;20059;-81
2021/12/13 00:42:27;;;;;;;66.88;18.00;;;10.00;99.90;;;;;;5076401;28;20048;-80
2021/12/13 00:44:58;;;;;;;54.38;16.80;;;10.00;99.90;;;;;;5081679;28;20070;-80
2021/12/13 00:47:31;;;;;;;;;;;10.00;99.90;;;;;;5081359;28;20399;-81
2021/12/13 00:50:05;;;;;;;53.78;16.45;;;10.00;99.90;;;;;;5096169;28;19941;-81
2021/12/13 00:52:34;;;;;;;71.32;18.63;;;9.90;99.90;;;;;;5087032;28;20043;-81
2021/12/13 00:55:01;;;;;;;63.00;18.48;;;10.00;99.90;;;;;;5095672;28;20410;-80
2021/12/13 00:57:30;;;;;;;67.10;19.67;;;9.90;99.90;;;;;;5079289;28;20037;-80
2021/12/13 01:00:04;;;;;;;63.78;20.25;;;9.90;99.90;;;;;;5081154;28;20122;-81
2021/12/13 01:02:41;;;;;;;87.10;21.65;;;10.00;99.90;;;;;;5094461;27;20044;-80
2021/12/13 01:05:11;;;;;;;69.20;19.60;;;10.10;99.90;;;;;;5080231;27;20096;-80
2021/12/13 01:07:46;;;;;;;56.00;18.88;;;10.00;99.90;;;;;;5082732;27;20043;-80
2021/12/13 01:10:49;;;;;;;74.50;18.55;;;9.90;99.90;;;;;;5078526;27;20051;-80
2021/12/13 01:13:22;;;;;;;67.13;18.65;;;10.00;99.90;;;;;;5097875;28;20040;-81
2021/12/13 01:16:08;;;;;;;65.90;18.52;;;10.00;99.90;;;;;;5098583;28;20047;-80
2021/12/13 01:18:59;;;;;;;46.75;16.30;;;9.90;99.90;;;;;;5099571;27;20039;-80
2021/12/13 01:21:43;;;;;;;71.30;17.48;;;10.10;99.90;;;;;;5099780;27;20044;-80
2021/12/13 01:24:41;;;;;;;48.60;16.15;;;10.00;99.90;;;;;;5099401;27;20046;-80
2021/12/13 01:27:07;;;;;;;76.80;17.55;;;9.90;99.90;;;;;;5097802;27;20126;-79
2021/12/13 01:29:33;;;;;;;56.30;16.05;;;10.00;99.90;;;;;;5100240;27;20263;-80
2021/12/13 01:32:03;;;;;;;46.70;14.90;;;9.90;99.90;;;;;;5094724;27;20489;-80
2021/12/13 01:34:33;;;;;;;65.32;16.88;;;9.90;99.90;;;;;;5089816;27;20075;-80
2021/12/13 01:37:08;;;;;;;47.95;15.65;;;10.00;99.90;;;;;;5105749;28;20054;-80
2021/12/13 01:39:38;;;;;;;47.47;15.88;;;10.00;99.90;;;;;;5100840;27;20085;-80
2021/12/13 01:42:14;;;;;;;46.92;15.63;;;10.00;99.90;;;;;;5090243;27;20586;-80
2021/12/13 01:44:44;;;;;;;44.67;15.50;;;10.00;99.90;;;;;;5090946;28;20449;-80
2021/12/13 01:47:14;;;;;;;44.67;15.98;;;10.00;99.90;;;;;;5098303;27;21854;-80
2021/12/13 01:49:44;;;;;;;43.33;15.35;;;10.00;99.90;;;;;;5094876;27;20407;-80
2021/12/13 01:52:30;;;;;;;53.35;16.85;;;10.00;99.90;;;;;;5095214;27;20076;-79
2021/12/13 01:55:00;;;;;;;50.00;15.20;;;10.00;99.90;;;;;;5093339;27;20040;-79
2021/12/13 01:57:46;;;;;;;55.93;17.63;;;10.00;99.90;;;;;;5074324;28;20044;-80
2021/12/13 02:00:33;;;;;;;53.03;17.70;;;10.00;99.90;;;;;;5090162;28;20293;-80
2021/12/13 02:02:59;;;;;;;58.13;19.00;;;10.00;99.90;;;;;;5077010;28;20390;-80
2021/12/13 02:05:30;;;;;;;42.78;17.42;;;10.00;99.90;;;;;;5083530;28;20039;-80
2021/12/13 02:08:13;;;;;;;40.35;17.75;;;10.00;99.90;;;;;;5107157;27;20045;-80
2021/12/13 02:10:49;;;;;;;57.35;18.23;;;10.00;99.90;;;;;;5103077;28;20496;-80
2021/12/13 02:13:24;;;;;;;53.17;19.35;;;10.00;99.90;;;;;;5094193;28;20089;-80
2021/12/13 02:18:41;;;;;;;55.50;20.35;;;10.00;99.90;;;;;;5097764;28;20047;-80
2021/12/13 02:21:21;;;;;;;58.05;20.50;;;10.00;99.90;;;;;;5101344;28;20058;-86
2021/12/13 02:23:49;;;;;;;79.93;22.23;;;10.00;99.90;;;;;;5089638;27;20130;-86
2021/12/13 02:26:15;;;;;;;68.30;21.65;;;10.00;99.90;;;;;;5097791;28;20122;-86
2021/12/13 02:28:44;;;;;;;73.63;22.30;;;10.00;99.90;;;;;;5079881;28;20044;-87
2021/12/13 02:31:19;;;;;;;73.13;22.05;;;10.00;99.90;;;;;;5101364;27;20035;-86
2021/12/13 02:33:50;;;;;;;63.28;21.50;;;10.00;99.90;;;;;;5080600;27;20478;-88
2021/12/13 02:36:23;;;;;;;74.18;22.23;;;10.00;99.90;;;;;;5080573;27;20457;-87
2021/12/13 02:38:51;;;;;;;62.15;21.65;;;10.00;99.90;;;;;;5102984;27;20047;-86
2021/12/13 02:41:21;;;;;;;66.03;21.80;;;9.90;99.90;;;;;;5081539;27;20051;-88
2021/12/13 02:43:52;;;;;;;61.05;20.60;;;9.90;99.90;;;;;;5100465;27;20057;-86
2021/12/13 02:46:18;;;;;;;60.25;20.15;;;9.90;99.90;;;;;;5091972;27;20114;-88
2021/12/13 02:48:57;;;;;;;75.40;22.05;;;9.90;99.90;;;;;;5094179;27;20261;-87
2021/12/13 02:51:33;;;;;;;71.70;19.73;;;9.90;99.90;;;;;;5096027;28;20051;-87
2021/12/13 02:54:06;;;;;;;54.33;18.00;;;9.90;99.90;;;;;;5083539;27;20043;-86
2021/12/13 02:56:40;;;;;;;63.45;19.27;;;9.90;99.90;;;;;;5099002;27;20067;-86
2021/12/13 02:59:07;;;;;;;61.20;17.95;;;9.80;99.90;;;;;;5081219;28;20036;-87
2021/12/13 03:01:44;;;;;;;57.00;17.90;;;9.80;99.90;;;;;;5084850;27;20036;-89
2021/12/13 03:04:15;;;;;;;68.47;18.33;;;9.80;99.90;;;;;;5099001;27;20173;-86
2021/12/13 03:06:48;;;;;;;54.53;17.80;;;9.80;99.90;;;;;;5097172;27;20050;-87
2021/12/13 03:09:18;;;;;;;53.65;17.10;;;9.80;99.90;;;;;;5098074;28;20471;-85
2021/12/13 03:11:46;;;;;;;55.25;16.75;;;9.80;99.90;;;;;;5097069;27;20051;-86
2021/12/13 03:14:25;;;;;;;48.38;16.75;;;9.80;99.90;;;;;;5096281;28;20050;-86
2021/12/13 03:17:04;;;;;;;50.67;16.65;;;9.80;99.90;;;;;;5097745;27;20552;-86
2021/12/13 03:19:36;;;;;;;50.55;16.40;;;9.80;99.90;;;;;;5100812;27;20031;-86
2021/12/13 03:22:43;;;;;;;57.45;17.58;;;9.70;99.90;;;;;;5097357;27;20126;-87
2021/12/13 03:25:26;;;;;;;46.30;16.45;;;9.70;99.90;;;;;;5085636;27;20061;-85
2021/12/13 03:28:11;;;;;;;62.30;16.98;;;9.70;99.90;;;;;;5098248;27;20035;-86
2021/12/13 03:30:59;;;;;;;46.80;15.30;;;9.70;99.90;;;;;;5097622;27;20053;-87
2021/12/13 03:33:39;;;;;;;51.88;16.45;;;9.70;99.90;;;;;;5079791;27;20043;-85
2021/12/13 03:36:10;;;;;;;46.88;16.83;;;9.70;99.90;;;;;;5100038;28;20047;-86
2021/12/13 03:38:44;;;;;;;47.75;15.82;;;9.60;99.90;;;;;;5077961;28;20063;-86
2021/12/13 03:41:16;;;;;;;48.45;15.88;;;9.70;99.90;;;;;;5094408;28;20058;-85
2021/12/13 03:43:49;;;;;;;40.78;14.13;;;9.70;99.90;;;;;;5097870;28;20047;-86
2021/12/13 03:46:19;;;;;;;45.40;14.18;;;9.60;99.90;;;;;;5096296;28;20056;-86
2021/12/13 03:48:46;;;;;;;39.97;13.75;;;9.60;99.90;;;;;;5096751;28;20063;-85
2021/12/13 03:51:16;;;;;;;42.45;12.93;;;9.60;99.90;;;;;;5079299;28;20039;-85
2021/12/13 03:53:46;;;;;;;32.47;12.27;;;9.60;99.90;;;;;;5095846;28;20078;-86
2021/12/13 03:56:17;;;;;;;34.95;10.65;;;9.60;99.90;;;;;;5096031;28;20586;-86
2021/12/13 03:58:46;;;;;;;32.17;10.82;;;9.60;99.90;;;;;;5079475;28;20134;-85
2021/12/13 04:01:18;;;;;;;27.13;9.63;;;9.60;99.90;;;;;;5076319;28;20055;-85
2021/12/13 04:03:45;;;;;;;31.50;10.95;;;9.60;99.90;;;;;;5077305;28;20130;-86
2021/12/13 04:06:15;;;;;;;35.38;9.05;;;9.60;99.90;;;;;;5077423;28;20442;-84
2021/12/13 04:08:42;;;;;;;26.48;8.95;;;9.50;99.90;;;;;;5094543;28;20523;-85
2021/12/13 04:11:10;;;;;;;32.17;9.63;;;9.50;99.90;;;;;;5076390;28;20118;-85
2021/12/13 04:13:43;;;;;;;29.80;9.02;;;9.50;99.90;;;;;;5079119;28;20051;-85
2021/12/13 04:16:29;;;;;;;25.75;8.25;;;9.50;99.90;;;;;;5077213;28;20063;-85
2021/12/13 04:19:24;;;;;;;19.92;8.50;;;9.50;99.90;;;;;;5097347;28;20052;-85
2021/12/13 04:21:59;;;;;;;26.52;7.00;;;9.50;99.90;;;;;;5061982;28;20407;-85
2021/12/13 04:24:42;;;;;;;19.30;7.15;;;9.50;99.90;;;;;;5081622;28;20071;-85
2021/12/13 04:27:28;;;;;;;18.65;6.85;;;9.50;99.90;;;;;;5097771;28;20050;-85
2021/12/13 04:29:59;;;;;;;20.60;6.03;;;9.50;99.90;;;;;;5083433;28;20567;-86
2021/12/13 04:32:30;;;;;;;25.58;6.70;;;9.50;99.90;;;;;;5079255;28;20130;-86
2021/12/13 04:35:00;;;;;;;21.38;7.05;;;9.70;99.90;;;;;;5078309;28;20135;-85
2021/12/13 04:37:31;;;;;;;19.45;6.30;;;9.40;99.90;;;;;;5100113;27;20132;-85
2021/12/13 04:40:00;;;;;;;17.85;6.25;;;9.40;99.90;;;;;;5085155;28;20123;-85
2021/12/13 04:42:28;;;;;;;14.32;5.40;;;9.40;99.90;;;;;;5072083;28;20047;-85
2021/12/13 04:45:06;;;;;;;17.58;5.15;;;9.40;99.90;;;;;;5075498;28;20043;-86
2021/12/13 04:47:34;;;;;;;16.60;4.90;;;9.40;99.90;;;;;;5082545;28;20094;-86
2021/12/13 04:50:16;;;;;;;13.30;4.80;;;9.40;99.90;;;;;;5075094;28;20047;-85
2021/12/13 04:52:43;;;;;;;12.32;3.95;;;9.40;99.90;;;;;;5090514;28;20051;-85
2021/12/13 04:55:22;;;;;;;8.48;4.00;;;9.40;99.90;;;;;;5072233;28;20039;-85
2021/12/13 04:57:49;;;;;;;14.13;3.85;;;9.40;99.90;;;;;;5093707;28;20036;-84
2021/12/13 05:00:18;;;;;;;13.82;3.67;;;9.50;99.90;;;;;;5087164;28;20040;-85
2021/12/13 05:02:47;;;;;;;14.45;3.70;;;9.30;99.90;;;;;;5072989;28;20035;-85
2021/12/13 05:05:15;;;;;;;8.95;3.75;;;9.40;99.90;;;;;;5096190;28;20051;-85
2021/12/13 05:07:44;;;;;;;11.63;4.05;;;9.40;99.90;;;;;;5074101;28;20408;-85
2021/12/13 05:10:12;;;;;;;11.60;3.22;;;9.30;99.90;;;;;;5077507;28;20051;-84
2021/12/13 05:12:39;;;;;;;12.45;3.70;;;9.30;99.90;;;;;;5096456;28;20035;-84
2021/12/13 05:15:10;;;;;;;14.25;3.78;;;9.60;99.90;;;;;;5079981;28;20686;-85
2021/12/13 05:17:43;;;;;;;10.02;3.90;;;9.30;99.90;;;;;;5089293;28;20127;-84
2021/12/13 05:20:16;;;;;;;11.00;4.22;;;9.30;99.90;;;;;;5101111;28;20072;-84
2021/12/13 05:23:11;;;;;;;15.32;5.35;;;9.30;99.90;;;;;;5092020;28;20060;-84
2021/12/13 05:25:39;;;;;;;9.65;4.40;;;9.30;99.90;;;;;;5071626;28;20073;-84
2021/12/13 05:28:09;;;;;;;15.70;5.60;;;9.30;99.90;;;;;;5070553;28;20040;-84
2021/12/13 05:30:41;;;;;;;12.20;4.95;;;9.30;99.90;;;;;;5071672;28;20048;-85
2021/12/13 05:33:08;;;;;;;15.20;5.03;;;9.30;99.90;;;;;;5096154;27;20054;-83
2021/12/13 05:35:39;;;;;;;10.70;5.28;;;9.30;99.90;;;;;;5071153;28;20039;-84
2021/12/13 05:38:11;;;;;;;14.73;6.00;;;9.40;99.90;;;;;;5092037;27;20509;-84
2021/12/13 05:40:43;;;;;;;16.85;5.45;;;9.20;99.90;;;;;;5099901;27;20403;-84
2021/12/13 05:43:24;;;;;;;13.75;6.30;;;9.30;99.90;;;;;;5096966;28;20055;-85
2021/12/13 05:46:02;;;;;;;15.05;5.68;;;9.20;99.90;;;;;;5096845;27;20132;-84
2021/12/13 05:48:34;;;;;;;15.68;5.60;;;9.20;99.90;;;;;;5107062;27;20785;-84
2021/12/13 05:51:02;;;;;;;14.40;5.88;;;9.20;99.90;;;;;;5082501;27;20120;-84
2021/12/13 05:53:38;;;;;;;13.25;5.75;;;9.20;99.90;;;;;;5093427;27;20781;-84
2021/12/13 05:56:08;;;;;;;13.30;6.45;;;9.30;99.90;;;;;;5101270;27;20058;-84
2021/12/13 05:58:52;;;;;;;14.10;6.35;;;9.20;99.90;;;;;;5097288;28;20035;-85
2021/12/13 06:01:36;;;;;;;16.92;6.65;;;9.20;99.90;;;;;;5085783;27;20090;-85
2021/12/13 06:04:07;;;;;;;20.80;7.35;;;9.40;99.90;;;;;;5104501;27;20092;-84
2021/12/13 06:06:55;;;;;;;14.90;7.20;;;9.30;99.90;;;;;;5099710;28;20112;-84
2021/12/13 06:09:54;;;;;;;15.52;7.82;;;9.20;99.90;;;;;;5101287;27;20357;-84
2021/12/13 06:12:37;;;;;;;16.50;8.00;;;9.20;99.90;;;;;;5108925;27;20131;-85
2021/12/13 06:15:27;;;;;;;17.58;8.43;;;9.20;99.90;;;;;;5087378;27;20043;-84
2021/12/13 06:18:27;;;;;;;19.20;7.70;;;9.20;99.90;;;;;;5087916;27;20235;-84
2021/12/13 06:21:12;;;;;;;18.20;7.68;;;9.20;99.90;;;;;;5083714;27;20130;-85
2021/12/13 06:23:39;;;;;;;16.02;7.45;;;9.20;99.90;;;;;;5094946;27;20058;-85
2021/12/13 06:26:10;;;;;;;18.08;7.93;;;9.20;99.90;;;;;;5082053;27;20039;-84
2021/12/13 06:28:43;;;;;;;16.70;8.87;;;9.20;99.90;;;;;;5085145;27;20077;-84
2021/12/13 06:31:16;;;;;;;20.80;8.80;;;9.20;99.90;;;;;;5084029;27;20126;-85
2021/12/13 06:33:52;;;;;;;17.08;8.05;;;9.20;99.90;;;;;;5082161;27;20435;-85
2021/12/13 06:36:31;;;;;;;21.25;8.88;;;9.20;99.90;;;;;;5094160;28;20549;-85
2021/12/13 06:39:07;;;;;;;20.60;9.45;;;9.20;99.90;;;;;;5101273;27;20051;-84
2021/12/13 06:41:42;;;;;;;24.65;9.02;;;9.10;99.90;;;;;;5095960;27;20543;-84
2021/12/13 06:44:29;;;;;;;19.00;8.60;;;9.10;99.90;;;;;;5094229;27;20403;-84
2021/12/13 06:47:07;;;;;;;15.05;8.20;;;9.10;99.90;;;;;;5102467;27;20089;-84
2021/12/13 06:49:36;;;;;;;17.73;9.20;;;9.20;99.90;;;;;;5095746;27;20100;-85
2021/12/13 06:52:08;;;;;;;20.08;8.75;;;9.20;99.90;;;;;;5091369;27;20130;-84
2021/12/13 06:54:53;;;;;;;17.05;8.20;;;9.10;99.90;;;;;;5083101;27;20096;-84
2021/12/13 06:57:30;;;;;;;18.52;9.43;;;9.30;99.90;;;;;;5106532;27;20039;-84
2021/12/13 07:00:19;;;;;;;16.02;9.20;;;9.10;99.90;;;;;;5100473;27;20061;-84
2021/12/13 07:02:50;;;;;;;18.65;8.57;;;9.10;99.90;;;;;;5103082;27;20137;-84
2021/12/13 07:05:24;;;;;;;14.05;8.63;;;9.10;99.90;;;;;;5095538;27;20495;-84
2021/12/13 07:08:09;;;;;;;14.77;9.18;;;9.10;99.90;;;;;;5096850;27;20055;-85
2021/12/13 07:10:56;;;;;;;25.35;9.73;;;9.10;99.90;;;;;;5096389;27;20047;-85
2021/12/13 07:13:31;;;;;;;21.48;9.50;;;9.10;99.90;;;;;;5096344;27;20141;-85
2021/12/13 07:16:04;;;;;;;18.55;8.77;;;9.10;99.90;;;;;;5080035;27;20043;-84
2021/12/13 07:18:49;;;;;;;20.92;9.25;;;9.10;99.90;;;;;;5097415;27;20522;-85
2021/12/13 07:21:26;;;;;;;18.58;9.48;;;9.10;99.90;;;;;;5097787;28;20047;-85
2021/12/13 07:24:02;;;;;;;20.88;9.65;;;9.10;99.90;;;;;;5117463;27;20055;-85
2021/12/13 07:26:39;;;;;;;22.20;9.75;;;9.10;99.90;;;;;;5097880;27;20170;-85
2021/12/13 07:29:18;;;;;;;18.65;9.55;;;9.10;99.90;;;;;;5093195;27;20043;-85
2021/12/13 07:31:59;;;;;;;19.02;9.73;;;9.10;99.90;;;;;;5093951;27;20063;-85
2021/12/13 07:34:25;;;;;;;23.02;10.77;;;9.10;99.90;;;;;;5089528;28;20142;-84
2021/12/13 07:36:54;;;;;;;20.40;10.10;;;9.10;99.90;;;;;;5090430;27;20169;-84
2021/12/13 07:39:25;;;;;;;18.58;10.15;;;9.10;99.90;;;;;;5094155;27;20043;-85
2021/12/13 07:41:58;;;;;;;22.65;11.20;;;9.10;99.90;;;;;;5080687;27;20076;-84
2021/12/13 07:44:45;;;;;;;19.05;11.18;;;9.10;99.90;;;;;;5080441;27;20051;-85
2021/12/13 07:47:22;;;;;;;21.63;11.63;;;9.10;99.90;;;;;;5091996;27;20088;-84
2021/12/13 07:49:52;;;;;;;22.25;12.65;;;9.10;99.90;;;;;;5075957;28;20046;-85
2021/12/13 07:52:35;;;;;;;22.92;11.70;;;9.00;99.90;;;;;;5081570;28;20503;-85
2021/12/13 07:55:22;;;;;;;22.52;11.80;;;9.00;99.90;;;;;;5099031;28;20365;-85
2021/12/13 07:57:49;;;;;;;24.77;12.85;;;9.00;99.90;;;;;;5072839;28;20081;-84
2021/12/13 08:00:24;;;;;;;25.60;12.27;;;9.00;99.90;;;;;;5095324;28;20125;-85
2021/12/13 08:03:03;;;;;;;26.38;13.38;;;9.00;99.90;;;;;;5078422;28;20112;-85
2021/12/13 08:05:38;;;;;;;27.58;13.30;;;9.00;99.90;;;;;;5078573;28;20091;-84
2021/12/13 08:08:07;;;;;;;24.67;13.48;;;9.00;99.90;;;;;;5074961;28;20039;-86
2021/12/13 08:10:36;;;;;;;24.55;13.70;;;9.00;99.90;;;;;;5097073;27;20039;-85
2021/12/13 08:13:13;;;;;;;24.08;13.20;;;9.40;99.90;;;;;;5088332;27;20082;-85
2021/12/13 08:15:50;;;;;;;25.35;14.43;;;9.00;99.90;;;;;;5084339;27;20439;-85
2021/12/13 08:18:35;;;;;;;25.42;14.50;;;9.00;99.90;;;;;;5101722;27;20042;-84
2021/12/13 08:21:20;;;;;;;29.13;15.35;;;9.10;99.90;;;;;;5100690;27;20036;-84
2021/12/13 08:23:56;;;;;;;30.60;15.57;;;9.10;99.90;;;;;;5100133;27;20039;-84
2021/12/13 08:26:28;;;;;;;32.88;16.33;;;9.10;99.90;;;;;;5079285;27;20059;-85
2021/12/13 08:28:56;;;;;;;27.33;17.15;;;9.40;99.90;;;;;;5099952;27;20051;-85
2021/12/13 08:31:26;;;;;;;29.92;17.00;;;9.10;99.90;;;;;;5075321;27;20397;-83
2021/12/13 08:33:57;;;;;;;29.67;17.58;;;9.10;99.90;;;;;;5084818;27;20050;-85
2021/12/13 08:36:37;;;;;;;31.90;17.45;;;9.40;99.90;;;;;;5085698;27;20103;-84
2021/12/13 08:39:15;;;;;;;33.30;17.83;;;9.20;99.90;;;;;;5101637;28;20052;-84
2021/12/13 08:41:46;;;;;;;30.15;17.85;;;9.20;99.90;;;;;;5078363;28;20070;-84
2021/12/13 08:44:11;;;;;;;30.83;17.10;;;9.30;99.90;;;;;;5080352;28;20043;-85
2021/12/13 08:46:54;;;;;;;29.38;17.05;;;9.20;99.90;;;;;;5079435;28;20040;-85
2021/12/13 08:49:29;;;;;;;26.20;17.92;;;9.20;99.90;;;;;;5092692;28;20052;-86
2021/12/13 08:51:57;;;;;;;29.30;17.45;;;9.20;99.90;;;;;;5097025;28;20040;-85
2021/12/13 08:54:36;;;;;;;30.45;17.80;;;9.20;99.90;;;;;;5080412;28;20491;-84
2021/12/13 08:57:05;;;;;;;29.90;17.27;;;9.20;99.90;;;;;;5094625;28;20043;-84
2021/12/13 08:59:31;;;;;;;28.58;18.38;;;9.30;99.90;;;;;;5086688;28;20131;-85
2021/12/13 09:02:05;;;;;;;33.20;19.58;;;9.30;99.90;;;;;;5091134;28;20107;-84
2021/12/13 09:04:37;;;;;;;30.88;17.83;;;9.30;99.90;;;;;;5084804;28;20089;-84
2021/12/13 09:07:06;;;;;;;32.47;18.55;;;9.30;99.90;;;;;;5073431;28;20043;-85
2021/12/13 09:09:33;;;;;;;26.73;17.42;;;9.30;99.90;;;;;;5079567;28;20070;-85
2021/12/13 09:12:07;;;;;;;31.10;17.77;;;9.40;99.90;;;;;;5092399;28;20055;-84
2021/12/13 09:14:38;;;;;;;30.35;18.65;;;9.40;99.90;;;;;;5074728;28;20046;-85
2021/12/13 09:17:21;;;;;;;29.15;17.50;;;9.40;99.90;;;;;;5058295;28;20047;-84
2021/12/13 09:20:16;;;;;;;27.63;18.00;;;9.40;99.90;;;;;;5082330;28;20246;-87
2021/12/13 09:22:53;;;;;;;27.83;19.48;;;9.40;99.90;;;;;;5066019;28;20117;-85
2021/12/13 09:25:37;;;;;;;29.25;18.23;;;9.40;99.90;;;;;;5086682;28;20101;-85
2021/12/13 09:28:17;;;;;;;27.42;16.65;;;9.40;99.90;;;;;;5059778;28;21042;-85
2021/12/13 09:30:53;;;;;;;26.75;17.42;;;9.40;99.90;;;;;;5074779;28;20404;-86
2021/12/13 09:33:28;;;;;;;28.50;17.65;;;9.40;99.90;;;;;;5093450;28;20779;-85
2021/12/13 09:36:07;;;;;;;23.52;16.25;;;9.40;99.90;;;;;;5071108;28;20096;-84
2021/12/13 09:38:58;;;;;;;32.33;17.00;;;9.50;99.90;;;;;;5078166;28;20036;-85
2021/12/13 09:41:35;;;;;;;27.25;16.83;;;9.50;99.90;;;;;;5070431;28;20043;-85
2021/12/13 09:44:39;;;;;;;25.17;16.70;;;9.50;99.90;;;;;;5082263;28;20051;-85
2021/12/13 09:47:13;;;;;;;27.42;16.85;;;9.50;99.90;;;;;;5059536;28;20051;-85
2021/12/13 09:49:47;;;;;;;23.52;15.40;;;9.50;99.90;;;;;;5086474;28;20075;-84
2021/12/13 09:52:29;;;;;;;21.50;15.25;;;9.50;99.90;;;;;;5071108;28;20162;-85
2021/12/13 09:55:00;;;;;;;27.88;16.40;;;9.50;99.90;;;;;;5084617;28;20055;-85
2021/12/13 09:57:37;;;;;;;25.52;15.38;;;9.50;99.90;;;;;;5083796;28;20093;-85
2021/12/13 10:00:10;;;;;;;24.08;15.18;;;9.50;99.90;;;;;;5075912;28;20130;-86
2021/12/13 10:02:41;;;;;;;24.65;14.90;;;9.40;99.90;;;;;;5070134;28;20051;-86
2021/12/13 10:05:10;;;;;;;23.30;14.98;;;9.50;99.90;;;;;;5089686;28;20075;-85
2021/12/13 10:07:41;;;;;;;24.52;14.80;;;9.50;99.90;;;;;;5088757;28;20059;-87
2021/12/13 10:10:12;;;;;;;26.38;15.60;;;9.50;99.90;;;;;;5067834;28;20043;-87
2021/12/13 10:12:44;;;;;;;24.35;13.15;;;9.50;99.90;;;;;;5082701;28;20455;-86
2021/12/13 10:15:42;;;;;;;22.60;14.43;;;9.80;99.90;;;;;;5084989;28;20877;-87
2021/12/13 10:18:13;;;;;;;22.23;13.57;;;9.50;99.90;;;;;;5082579;28;20039;-86
2021/12/13 10:21:22;;;;;;;21.02;14.45;;;9.50;99.90;;;;;;5092726;28;20046;-86
2021/12/13 10:24:06;;;;;;;21.70;13.07;;;9.50;99.90;;;;;;5076071;28;20039;-87
2021/12/13 10:26:37;;;;;;;21.38;13.77;;;9.50;99.90;;;;;;5081933;28;20044;-87
2021/12/13 10:29:07;;;;;;;24.83;15.57;;;9.60;99.90;;;;;;5094812;28;20039;-86
2021/12/13 10:31:54;;;;;;;21.03;13.87;;;9.60;99.90;;;;;;5076161;28;20721;-87
2021/12/13 10:34:34;;;;;;;22.90;14.48;;;9.60;99.90;;;;;;5080697;28;20059;-86
2021/12/13 10:37:06;;;;;;;20.80;13.55;;;9.60;99.90;;;;;;5088907;28;20074;-86
2021/12/13 10:39:37;;;;;;;23.88;13.77;;;9.70;99.90;;;;;;5084661;28;20499;-84
2021/12/13 10:42:09;;;;;;;27.42;14.65;;;9.60;99.90;;;;;;5072288;28;20075;-86
2021/12/13 10:44:38;;;;;;;25.10;14.25;;;9.70;99.90;;;;;;5079245;28;20142;-85
2021/12/13 10:47:09;;;;;;;20.98;13.55;;;9.70;99.90;;;;;;5081205;28;20899;-86
2021/12/13 10:49:40;;;;;;;22.60;14.15;;;9.80;99.90;;;;;;5068660;28;20427;-87
2021/12/13 10:52:14;;;;;;;29.85;13.90;;;9.70;99.90;;;;;;5087472;28;20492;-85
2021/12/13 10:54:44;;;;;;;27.40;14.73;;;9.70;99.90;;;;;;5097990;28;20130;-85
2021/12/13 10:57:17;;;;;;;22.25;13.55;;;9.70;99.90;;;;;;5088293;28;20047;-86
2021/12/13 10:59:45;;;;;;;21.98;13.43;;;9.70;99.90;;;;;;5087384;28;20067;-86
2021/12/13 11:02:16;;;;;;;23.30;13.55;;;9.70;99.90;;;;;;5087795;28;20047;-86
2021/12/13 11:04:49;;;;;;;25.30;14.00;;;9.70;99.90;;;;;;5076202;28;20051;-84
2021/12/13 11:07:16;;;;;;;24.52;13.10;;;9.70;99.90;;;;;;5076577;28;20083;-84
2021/12/13 11:09:44;;;;;;;22.08;13.77;;;9.60;99.90;;;;;;5084571;28;20046;-84
2021/12/13 11:12:22;;;;;;;26.15;12.75;;;9.60;99.90;;;;;;5076201;28;20031;-84
2021/12/13 11:14:50;;;;;;;22.58;13.52;;;9.60;99.90;;;;;;5083180;28;20060;-83
2021/12/13 11:17:24;;;;;;;24.00;14.25;;;9.70;99.90;;;;;;5088032;28;20044;-83
2021/12/13 11:19:54;;;;;;;24.15;13.48;;;9.70;99.90;;;;;;5100546;28;20419;-84
2021/12/13 11:22:28;;;;;;;22.80;13.43;;;9.70;99.90;;;;;;5074049;28;20044;-83
2021/12/13 11:25:09;;;;;;;22.92;13.38;;;9.70;99.90;;;;;;5096309;28;20056;-84
2021/12/13 11:27:35;;;;;;;23.25;13.55;;;9.80;99.90;;;;;;5081654;28;20142;-84
2021/12/13 11:30:05;;;;;;;20.73;14.02;;;9.80;99.90;;;;;;5082841;28;20043;-84
2021/12/13 11:32:37;;;;;;;24.77;15.15;;;9.80;99.90;;;;;;5081965;28;20586;-83
2021/12/13 11:35:27;;;;;;;22.85;13.35;;;9.80;99.90;;;;;;5083002;28;20050;-83
2021/12/13 11:38:29;;;;;;;20.08;13.05;;;9.80;99.90;;;;;;5082466;28;20036;-84
2021/12/13 11:41:19;;;;;;;21.63;12.98;;;9.90;99.90;;;;;;5084485;27;20047;-83
2021/12/13 11:44:04;;;;;;;20.50;12.30;;;9.90;99.90;;;;;;5084314;28;20035;-84
2021/12/13 11:47:14;;;;;;;21.70;12.75;;;9.90;99.90;;;;;;5084558;27;20046;-84
2021/12/13 11:50:02;;;;;;;20.73;13.50;;;10.00;99.90;;;;;;5084279;28;20044;-85
2021/12/13 11:52:36;;;;;;;22.85;12.63;;;10.00;99.90;;;;;;5075196;28;20047;-84
2021/12/13 11:55:41;;;;;;;20.50;13.45;;;10.10;99.90;;;;;;5089198;28;20133;-84
2021/12/13 11:58:39;;;;;;;28.52;13.75;;;10.20;99.90;;;;;;5075894;28;20046;-84
2021/12/13 12:01:26;;;;;;;19.30;12.27;;;10.20;99.90;;;;;;5085562;28;20052;-85
2021/12/13 12:04:30;;;;;;;20.15;12.02;;;10.30;99.90;;;;;;5069595;28;20492;-84
2021/12/13 12:07:08;;;;;;;23.65;13.20;;;10.30;99.90;;;;;;5084852;28;20043;-85
2021/12/13 12:09:52;;;;;;;21.13;12.27;;;10.30;99.90;;;;;;5081225;28;20114;-85
2021/12/13 12:12:33;;;;;;;24.88;13.10;;;10.30;99.90;;;;;;5088243;28;20054;-85
2021/12/13 12:15:01;;;;;;;25.93;13.07;;;10.20;99.90;;;;;;5071947;28;20067;-85
2021/12/13 12:17:32;;;;;;;23.70;12.90;;;10.20;99.90;;;;;;5067178;28;20285;-85
2021/12/13 12:19:59;;;;;;;23.80;14.50;;;10.20;99.90;;;;;;5073397;28;20038;-85
2021/12/13 12:22:39;;;;;;;26.45;14.27;;;10.10;99.90;;;;;;5073333;28;20047;-86
2021/12/13 12:25:05;;;;;;;23.13;12.57;;;10.10;99.90;;;;;;5071560;28;20476;-86
2021/12/13 12:27:34;;;;;;;23.02;14.23;;;10.10;99.90;;;;;;5071667;28;20502;-87
2021/12/13 12:30:16;;;;;;;23.30;14.30;;;10.10;99.90;;;;;;5075044;28;20043;-87
2021/12/13 12:32:51;;;;;;;22.85;13.30;;;10.00;99.90;;;;;;5087365;28;20403;-87
2021/12/13 12:35:29;;;;;;;25.13;13.15;;;10.10;99.90;;;;;;5075440;28;20051;-87
2021/12/13 12:38:17;;;;;;;27.73;14.38;;;10.00;99.90;;;;;;5096706;28;20039;-87
2021/12/13 12:41:11;;;;;;;27.45;14.52;;;10.00;99.90;;;;;;5075755;28;20150;-87
2021/12/13 12:43:41;;;;;;;23.90;13.80;;;10.00;99.90;;;;;;5077027;28;20176;-87
2021/12/13 12:46:13;;;;;;;27.83;13.20;;;10.00;99.90;;;;;;5086308;28;20062;-87
2021/12/13 12:48:52;;;;;;;28.52;13.32;;;10.00;99.90;;;;;;5070678;28;20043;-87
2021/12/13 12:51:22;;;;;;;23.13;12.60;;;9.90;99.90;;;;;;5077637;28;20461;-87
2021/12/13 12:53:55;;;;;;;22.92;12.82;;;9.90;99.90;;;;;;5075109;28;20044;-87
2021/12/13 12:56:30;;;;;;;28.60;14.02;;;9.90;99.90;;;;;;5096151;28;20077;-86
2021/12/13 12:58:57;;;;;;;24.50;13.15;;;9.90;99.90;;;;;;5119239;27;20532;-87
2021/12/13 13:01:28;;;;;;;25.45;13.85;;;9.90;99.90;;;;;;5080227;27;20027;-87
2021/12/13 13:04:09;;;;;;;25.65;13.95;;;10.00;99.90;;;;;;5087487;27;20311;-88
2021/12/13 13:06:35;;;;;;;26.75;14.52;;;9.90;99.90;;;;;;5072381;27;20067;-86
2021/12/13 13:09:09;;;;;;;27.15;14.93;;;9.90;99.90;;;;;;5083959;27;20043;-86
2021/12/13 13:11:35;;;;;;;27.30;13.32;;;9.90;99.90;;;;;;5085503;28;20039;-86
2021/12/13 13:14:10;;;;;;;28.17;13.63;;;10.00;99.90;;;;;;5091123;28;20047;-86
2021/12/13 13:16:44;;;;;;;25.73;13.40;;;10.00;99.90;;;;;;5090159;27;20051;-86
2021/12/13 13:19:26;;;;;;;23.83;13.68;;;10.00;99.90;;;;;;5074661;27;20051;-86
2021/12/13 13:21:53;;;;;;;25.23;12.48;;;10.00;99.90;;;;;;5093930;28;20054;-86
2021/12/13 13:24:20;;;;;;;24.77;13.48;;;10.00;99.90;;;;;;5074123;28;20535;-86